Time,TemperatureF,DewpointF,PressureIn,WindDirection,WindDirectionDegrees,WindSpeedMPH,WindSpeedGustMPH,Humidity,HourlyPrecipIn,Conditions,Clouds,dailyrainin,SoftwareType,DateUTC
2014-02-17 00:01:00,36.4,25.8,30.13,WNW,293,2.2,2.5,65,0.00,,,0.00,WUHU216HW,2014-02-17 05:01:00,
2014-02-17 00:06:00,35.1,25.2,30.12,NW,315,1.3,2.5,67,0.00,,,0.00,WUHU216HW,2014-02-17 05:06:00,
2014-02-17 00:11:00,34.9,25.0,30.13,NW,315,1.8,2.5,67,0.00,,,0.00,WUHU216HW,2014-02-17 05:11:00,
2014-02-17 00:16:00,34.9,25.0,30.13,NW,315,2.0,2.7,67,0.00,,,0.00,WUHU216HW,2014-02-17 05:16:00,
2014-02-17 00:21:00,34.7,25.2,30.13,NW,315,1.3,2.7,68,0.00,,,0.00,WUHU216HW,2014-02-17 05:21:00,
2014-02-17 00:26:00,34.6,25.0,30.13,NW,315,1.6,2.5,68,0.00,,,0.00,WUHU216HW,2014-02-17 05:26:00,
2014-02-17 00:31:00,34.4,24.8,30.13,WNW,293,2.0,2.2,68,0.00,,,0.00,WUHU216HW,2014-02-17 05:31:00,
2014-02-17 00:36:00,34.2,24.7,30.13,WNW,293,0.4,2.5,68,0.00,,,0.00,WUHU216HW,2014-02-17 05:36:00,
2014-02-17 00:41:00,33.7,25.2,30.14,NW,315,1.8,2.5,71,0.00,,,0.00,WUHU216HW,2014-02-17 05:41:00,
2014-02-17 00:46:00,33.1,24.0,30.14,WNW,293,0.4,2.5,69,0.00,,,0.00,WUHU216HW,2014-02-17 05:46:00,
2014-02-17 00:51:00,33.1,24.4,30.14,NE,45,0.0,1.8,70,0.00,,,0.00,WUHU216HW,2014-02-17 05:51:00,
2014-02-17 00:56:00,33.3,24.6,30.15,North,0,0.2,0.9,70,0.00,,,0.00,WUHU216HW,2014-02-17 05:56:00,
2014-02-17 01:01:00,33.1,24.4,30.15,North,0,0.0,0.4,70,0.00,,,0.00,WUHU216HW,2014-02-17 06:01:00,
2014-02-17 01:06:00,32.8,24.0,30.15,NNW,338,0.0,0.9,70,0.00,,,0.00,WUHU216HW,2014-02-17 06:06:00,
2014-02-17 01:11:00,32.8,24.0,30.15,North,0,0.0,0.9,70,0.00,,,0.00,WUHU216HW,2014-02-17 06:11:00,
2014-02-17 01:16:00,32.8,24.0,30.15,NNW,338,0.0,1.3,70,0.00,,,0.00,WUHU216HW,2014-02-17 06:16:00,
2014-02-17 01:21:00,32.6,24.2,30.15,North,0,0.0,1.3,71,0.00,,,0.00,WUHU216HW,2014-02-17 06:21:00,
2014-02-17 01:26:00,32.0,23.8,30.15,NNE,23,0.0,1.1,71,0.00,,,0.00,WUHU216HW,2014-02-17 06:26:00,
2014-02-17 01:31:00,32.0,24.0,30.15,North,0,0.0,1.1,72,0.00,,,0.00,WUHU216HW,2014-02-17 06:31:00,
2014-02-17 01:36:00,32.0,24.0,30.15,North,0,0.0,0.9,72,0.00,,,0.00,WUHU216HW,2014-02-17 06:36:00,
2014-02-17 01:41:00,32.4,24.7,30.15,NW,315,1.3,1.3,73,0.00,,,0.00,WUHU216HW,2014-02-17 06:41:00,
2014-02-17 01:46:00,32.6,24.8,30.15,NW,315,0.4,1.3,73,0.00,,,0.00,WUHU216HW,2014-02-17 06:46:00,
2014-02-17 01:51:00,32.8,25.0,30.15,North,0,0.4,1.6,73,0.00,,,0.00,WUHU216HW,2014-02-17 06:51:00,
2014-02-17 01:56:00,33.1,25.4,30.15,NW,315,1.6,1.8,73,0.00,,,0.00,WUHU216HW,2014-02-17 06:56:00,
2014-02-17 02:01:00,33.1,25.0,30.15,NW,315,1.1,1.8,72,0.00,,,0.00,WUHU216HW,2014-02-17 07:01:00,
2014-02-17 02:06:00,33.1,25.4,30.15,NNE,23,0.7,2.5,73,0.00,,,0.00,WUHU216HW,2014-02-17 07:06:00,
2014-02-17 02:11:00,33.3,25.5,30.15,NW,315,0.0,2.5,73,0.00,,,0.00,WUHU216HW,2014-02-17 07:11:00,
2014-02-17 02:16:00,33.1,25.4,30.15,NNW,338,0.4,2.5,73,0.00,,,0.00,WUHU216HW,2014-02-17 07:16:00,
2014-02-17 02:21:00,32.9,25.2,30.15,NNW,338,0.0,1.1,73,0.00,,,0.00,WUHU216HW,2014-02-17 07:21:00,
2014-02-17 02:26:00,33.1,25.4,30.17,NW,315,2.0,2.5,73,0.00,,,0.00,WUHU216HW,2014-02-17 07:26:00,
2014-02-17 02:31:00,32.9,25.2,30.16,NW,315,0.9,2.5,73,0.00,,,0.00,WUHU216HW,2014-02-17 07:31:00,
2014-02-17 02:36:00,32.8,25.0,30.17,North,0,1.1,2.0,73,0.00,,,0.00,WUHU216HW,2014-02-17 07:36:00,
2014-02-17 02:41:00,32.9,25.2,30.17,North,0,0.0,2.0,73,0.00,,,0.00,WUHU216HW,2014-02-17 07:41:00,
2014-02-17 02:46:00,33.1,25.4,30.18,NW,315,1.3,2.2,73,0.00,,,0.00,WUHU216HW,2014-02-17 07:46:00,
2014-02-17 02:51:00,32.8,25.0,30.18,NW,315,1.1,2.2,73,0.00,,,0.00,WUHU216HW,2014-02-17 07:51:00,
2014-02-17 02:56:00,32.4,24.7,30.18,NW,315,1.3,2.2,73,0.00,,,0.00,WUHU216HW,2014-02-17 07:56:00,
2014-02-17 03:01:00,32.0,24.4,30.17,NW,315,0.9,2.2,73,0.00,,,0.00,WUHU216HW,2014-02-17 08:01:00,
2014-02-17 03:06:00,31.9,24.5,30.18,WNW,293,0.0,2.5,74,0.00,,,0.00,WUHU216HW,2014-02-17 08:06:00,
2014-02-17 03:11:00,31.7,24.3,30.17,WNW,293,0.0,2.5,74,0.00,,,0.00,WUHU216HW,2014-02-17 08:11:00,
2014-02-17 03:16:00,31.9,24.5,30.18,NW,315,0.7,1.3,74,0.00,,,0.00,WUHU216HW,2014-02-17 08:16:00,
2014-02-17 03:21:00,32.2,25.5,30.18,North,0,0.9,1.6,76,0.00,,,0.00,WUHU216HW,2014-02-17 08:21:00,
2014-02-17 03:26:00,32.6,25.5,30.18,North,0,1.1,1.6,75,0.00,,,0.00,WUHU216HW,2014-02-17 08:26:00,
2014-02-17 03:31:00,32.8,26.0,30.18,North,0,0.7,1.3,76,0.00,,,0.00,WUHU216HW,2014-02-17 08:31:00,
2014-02-17 03:36:00,32.8,25.7,30.18,NNW,338,0.4,1.1,75,0.00,,,0.00,WUHU216HW,2014-02-17 08:36:00,
2014-02-17 03:41:00,32.8,25.7,30.19,NNW,338,0.2,1.1,75,0.00,,,0.00,WUHU216HW,2014-02-17 08:41:00,
2014-02-17 03:46:00,32.8,26.0,30.19,NNE,23,1.3,2.9,76,0.00,,,0.00,WUHU216HW,2014-02-17 08:46:00,
2014-02-17 03:51:00,33.5,27.0,30.19,NNE,23,2.2,2.9,77,0.00,,,0.00,WUHU216HW,2014-02-17 08:51:00,
2014-02-17 03:56:00,34.2,27.4,30.20,North,0,2.9,3.1,76,0.00,,,0.00,WUHU216HW,2014-02-17 08:56:00,
2014-02-17 04:01:00,34.2,27.4,30.20,North,0,1.6,3.1,76,0.00,,,0.00,WUHU216HW,2014-02-17 09:01:00,
2014-02-17 04:06:00,34.2,27.0,30.20,NNE,23,0.0,2.9,75,0.00,,,0.00,WUHU216HW,2014-02-17 09:06:00,
2014-02-17 04:11:00,34.6,27.4,30.20,NE,45,2.2,2.2,75,0.00,,,0.00,WUHU216HW,2014-02-17 09:11:00,
2014-02-17 04:16:00,34.9,27.7,30.20,NNE,23,1.1,2.2,75,0.00,,,0.00,WUHU216HW,2014-02-17 09:16:00,
2014-02-17 04:21:00,35.1,27.5,30.21,NNE,23,0.0,2.0,74,0.00,,,0.00,WUHU216HW,2014-02-17 09:21:00,
2014-02-17 04:26:00,34.9,27.1,30.21,NNE,23,0.0,1.1,73,0.00,,,0.00,WUHU216HW,2014-02-17 09:26:00,
2014-02-17 04:31:00,34.6,26.7,30.21,NNE,23,0.0,0.0,73,0.00,,,0.00,WUHU216HW,2014-02-17 09:31:00,
2014-02-17 04:36:00,34.2,26.4,30.20,NNE,23,0.0,0.0,73,0.00,,,0.00,WUHU216HW,2014-02-17 09:36:00,
2014-02-17 04:41:00,33.8,26.0,30.21,NNE,23,0.0,0.4,73,0.00,,,0.00,WUHU216HW,2014-02-17 09:41:00,
2014-02-17 04:46:00,33.5,25.7,30.21,NNE,23,0.0,0.4,73,0.00,,,0.00,WUHU216HW,2014-02-17 09:46:00,
2014-02-17 04:51:00,33.1,25.4,30.21,NNE,23,0.0,0.0,73,0.00,,,0.00,WUHU216HW,2014-02-17 09:51:00,
2014-02-17 04:56:00,32.8,25.7,30.21,NW,315,0.4,0.4,75,0.00,,,0.00,WUHU216HW,2014-02-17 09:56:00,
2014-02-17 05:01:00,32.8,25.7,30.21,SSE,158,0.2,1.1,75,0.00,,,0.00,WUHU216HW,2014-02-17 10:01:00,
2014-02-17 05:06:00,32.8,25.7,30.22,ESE,113,0.0,1.1,75,0.00,,,0.00,WUHU216HW,2014-02-17 10:06:00,
2014-02-17 05:11:00,32.9,25.8,30.22,ESE,113,0.0,1.1,75,0.00,,,0.00,WUHU216HW,2014-02-17 10:11:00,
2014-02-17 05:16:00,33.1,26.0,30.23,ESE,113,0.0,0.4,75,0.00,,,0.00,WUHU216HW,2014-02-17 10:16:00,
2014-02-17 05:21:00,33.3,26.2,30.23,ESE,113,0.4,1.1,75,0.00,,,0.00,WUHU216HW,2014-02-17 10:21:00,
2014-02-17 05:26:00,33.7,26.8,30.23,East,90,1.8,1.8,76,0.00,,,0.00,WUHU216HW,2014-02-17 10:26:00,
2014-02-17 05:31:00,33.8,26.6,30.23,ENE,68,1.1,1.8,75,0.00,,,0.00,WUHU216HW,2014-02-17 10:31:00,
2014-02-17 05:36:00,34.2,27.0,30.23,ESE,113,0.2,2.9,75,0.00,,,0.00,WUHU216HW,2014-02-17 10:36:00,
2014-02-17 05:41:00,34.2,27.0,30.24,East,90,0.0,2.9,75,0.00,,,0.00,WUHU216HW,2014-02-17 10:41:00,
2014-02-17 05:46:00,34.2,26.6,30.24,East,90,0.7,1.8,74,0.00,,,0.00,WUHU216HW,2014-02-17 10:46:00,
2014-02-17 05:51:00,34.4,26.8,30.24,East,90,0.9,1.1,74,0.00,,,0.00,WUHU216HW,2014-02-17 10:51:00,
2014-02-17 05:56:00,34.4,26.8,30.24,NNE,23,0.9,2.5,74,0.00,,,0.00,WUHU216HW,2014-02-17 10:56:00,
2014-02-17 06:01:00,33.8,26.6,30.24,NNE,23,2.5,2.5,75,0.00,,,0.00,WUHU216HW,2014-02-17 11:01:00,
2014-02-17 06:06:00,33.8,26.6,30.24,NE,45,2.5,2.7,75,0.00,,,0.00,WUHU216HW,2014-02-17 11:06:00,
2014-02-17 06:11:00,34.0,26.8,30.23,NNE,23,1.8,2.7,75,0.00,,,0.00,WUHU216HW,2014-02-17 11:11:00,
2014-02-17 06:16:00,34.2,27.0,30.24,North,0,1.3,2.7,75,0.00,,,0.00,WUHU216HW,2014-02-17 11:16:00,
2014-02-17 06:21:00,34.2,26.6,30.25,North,0,0.4,1.8,74,0.00,,,0.00,WUHU216HW,2014-02-17 11:21:00,
2014-02-17 06:26:00,33.8,26.3,30.25,NW,315,1.6,2.0,74,0.00,,,0.00,WUHU216HW,2014-02-17 11:26:00,
2014-02-17 06:31:00,33.3,26.2,30.25,North,0,1.8,2.0,75,0.00,,,0.00,WUHU216HW,2014-02-17 11:31:00,
2014-02-17 06:36:00,33.3,26.5,30.25,NE,45,0.2,2.5,76,0.00,,,0.00,WUHU216HW,2014-02-17 11:36:00,
2014-02-17 06:41:00,33.7,26.8,30.25,NNE,23,2.2,2.5,76,0.00,,,0.00,WUHU216HW,2014-02-17 11:41:00,
2014-02-17 06:46:00,33.8,26.6,30.25,NNE,23,1.1,4.7,75,0.00,,,0.00,WUHU216HW,2014-02-17 11:46:00,
2014-02-17 06:51:00,33.8,27.0,30.24,ENE,68,1.1,4.7,76,0.00,,,0.00,WUHU216HW,2014-02-17 11:51:00,
2014-02-17 06:56:00,33.8,26.6,30.24,NNE,23,1.1,4.9,75,0.00,,,0.00,WUHU216HW,2014-02-17 11:56:00,
2014-02-17 07:01:00,33.8,26.6,30.24,NNE,23,3.8,4.9,75,0.00,,,0.00,WUHU216HW,2014-02-17 12:01:00,
2014-02-17 07:06:00,33.8,26.6,30.25,NNE,23,3.1,4.7,75,0.00,,,0.00,WUHU216HW,2014-02-17 12:06:00,
2014-02-17 07:11:00,33.8,26.6,30.25,NE,45,0.7,4.0,75,0.00,,,0.00,WUHU216HW,2014-02-17 12:11:00,
2014-02-17 07:16:00,33.8,26.3,30.25,NE,45,1.3,4.0,74,0.00,,,0.00,WUHU216HW,2014-02-17 12:16:00,
2014-02-17 07:21:00,33.8,26.3,30.25,NNE,23,1.3,3.6,74,0.00,,,0.00,WUHU216HW,2014-02-17 12:21:00,
2014-02-17 07:26:00,34.0,26.5,30.26,NE,45,1.1,2.5,74,0.00,,,0.00,WUHU216HW,2014-02-17 12:26:00,
2014-02-17 07:31:00,34.0,26.5,30.26,NE,45,1.8,2.2,74,0.00,,,0.00,WUHU216HW,2014-02-17 12:31:00,
2014-02-17 07:36:00,34.2,26.4,30.26,ENE,68,1.1,3.4,73,0.00,,,0.00,WUHU216HW,2014-02-17 12:36:00,
2014-02-17 07:41:00,34.2,26.4,30.26,NNE,23,3.4,3.4,73,0.00,,,0.00,WUHU216HW,2014-02-17 12:41:00,
2014-02-17 07:46:00,34.4,26.8,30.27,North,0,1.3,3.4,74,0.00,,,0.00,WUHU216HW,2014-02-17 12:46:00,
2014-02-17 07:51:00,34.7,27.2,30.28,North,0,0.9,3.4,74,0.00,,,0.00,WUHU216HW,2014-02-17 12:51:00,
2014-02-17 07:56:00,34.9,27.4,30.28,NNE,23,2.5,3.1,74,0.00,,,0.00,WUHU216HW,2014-02-17 12:56:00,
2014-02-17 08:01:00,34.7,26.9,30.29,NNE,23,3.1,3.1,73,0.00,,,0.00,WUHU216HW,2014-02-17 13:01:00,
2014-02-17 08:06:00,34.9,27.1,30.29,NNE,23,2.7,3.4,73,0.00,,,0.00,WUHU216HW,2014-02-17 13:06:00,
2014-02-17 08:11:00,34.9,27.1,30.29,NNE,23,2.2,3.4,73,0.00,,,0.00,WUHU216HW,2014-02-17 13:11:00,
2014-02-17 08:16:00,34.9,27.1,30.29,NE,45,2.2,3.4,73,0.00,,,0.00,WUHU216HW,2014-02-17 13:16:00,
2014-02-17 08:21:00,35.1,27.3,30.29,NNE,23,1.1,3.6,73,0.00,,,0.00,WUHU216HW,2014-02-17 13:21:00,
2014-02-17 08:26:00,35.5,27.6,30.30,NE,45,0.9,3.6,73,0.00,,,0.00,WUHU216HW,2014-02-17 13:26:00,
2014-02-17 08:31:00,35.6,27.8,30.31,NE,45,1.8,4.0,73,0.00,,,0.00,WUHU216HW,2014-02-17 13:31:00,
2014-02-17 08:36:00,35.6,27.5,30.31,SE,135,1.8,4.7,72,0.00,,,0.00,WUHU216HW,2014-02-17 13:36:00,
2014-02-17 08:41:00,36.2,27.7,30.31,East,90,1.8,4.7,71,0.00,,,0.00,WUHU216HW,2014-02-17 13:41:00,
2014-02-17 08:46:00,36.4,27.5,30.31,ENE,68,3.1,5.1,70,0.00,,,0.00,WUHU216HW,2014-02-17 13:46:00,
2014-02-17 08:51:00,36.4,27.5,30.31,ENE,68,4.0,6.9,70,0.00,,,0.00,WUHU216HW,2014-02-17 13:51:00,
2014-02-17 08:56:00,36.4,27.2,30.31,NE,45,5.8,6.9,69,0.00,,,0.00,WUHU216HW,2014-02-17 13:56:00,
2014-02-17 09:01:00,36.5,27.0,30.32,East,90,3.1,6.9,68,0.00,,,0.00,WUHU216HW,2014-02-17 14:01:00,
2014-02-17 09:05:00,36.9,27.7,30.31,ENE,68,3.8,6.9,69,0.00,,,0.00,WUHU216HW,2014-02-17 14:05:00,
2014-02-17 09:10:00,37.4,27.9,30.31,NE,45,3.6,6.3,68,0.00,,,0.00,WUHU216HW,2014-02-17 14:10:00,
2014-02-17 09:16:00,37.8,27.5,30.31,ESE,113,5.8,6.5,66,0.00,,,0.00,WUHU216HW,2014-02-17 14:16:00,
2014-02-17 09:20:00,38.2,27.7,30.31,ESE,113,4.0,6.5,66,0.00,,,0.00,WUHU216HW,2014-02-17 14:20:00,
2014-02-17 09:25:00,38.7,27.5,30.30,ENE,68,4.5,6.3,64,0.00,,,0.00,WUHU216HW,2014-02-17 14:25:00,
2014-02-17 09:30:00,38.5,27.4,30.31,East,90,6.3,6.3,64,0.00,,,0.00,WUHU216HW,2014-02-17 14:30:00,
2014-02-17 09:36:00,38.7,27.1,30.31,ENE,68,3.8,6.3,63,0.00,,,0.00,WUHU216HW,2014-02-17 14:36:00,
2014-02-17 09:41:00,38.2,26.7,30.31,NNE,23,4.0,9.6,63,0.00,,,0.00,WUHU216HW,2014-02-17 14:41:00,
2014-02-17 09:46:00,38.0,26.5,30.31,ENE,68,4.0,9.6,63,0.00,,,0.00,WUHU216HW,2014-02-17 14:46:00,
2014-02-17 09:51:00,38.2,26.7,30.31,East,90,2.9,7.6,63,0.00,,,0.00,WUHU216HW,2014-02-17 14:51:00,
2014-02-17 09:56:00,38.9,27.3,30.31,NE,45,1.8,7.6,63,0.00,,,0.00,WUHU216HW,2014-02-17 14:56:00,
2014-02-17 10:01:00,38.9,26.9,30.31,ENE,68,4.9,7.4,62,0.00,,,0.00,WUHU216HW,2014-02-17 15:01:00,
2014-02-17 10:05:00,38.9,26.6,30.31,East,90,4.9,7.4,61,0.00,,,0.00,WUHU216HW,2014-02-17 15:05:00,
2014-02-17 10:10:00,39.8,27.4,30.31,North,0,1.8,6.9,61,0.00,,,0.00,WUHU216HW,2014-02-17 15:10:00,
2014-02-17 10:15:00,40.3,27.5,30.31,ENE,68,3.1,9.6,60,0.00,,,0.00,WUHU216HW,2014-02-17 15:15:00,
2014-02-17 10:21:00,40.5,26.8,30.31,NNE,23,7.6,9.6,58,0.00,,,0.00,WUHU216HW,2014-02-17 15:21:00,
2014-02-17 10:26:00,40.5,27.7,30.31,NNE,23,0.7,8.5,60,0.00,,,0.00,WUHU216HW,2014-02-17 15:26:00,
2014-02-17 10:31:00,40.7,27.0,30.31,NE,45,2.2,8.1,58,0.00,,,0.00,WUHU216HW,2014-02-17 15:31:00,
2014-02-17 10:36:00,41.0,27.4,30.31,ESE,113,2.2,8.1,58,0.00,,,0.00,WUHU216HW,2014-02-17 15:36:00,
2014-02-17 10:41:00,41.2,27.6,30.31,NNE,23,2.5,6.3,58,0.00,,,0.00,WUHU216HW,2014-02-17 15:41:00,
2014-02-17 10:45:00,42.1,27.5,30.31,East,90,3.1,8.5,56,0.00,,,0.00,WUHU216HW,2014-02-17 15:45:00,
2014-02-17 10:50:00,42.5,27.8,30.32,East,90,4.3,8.5,56,0.00,,,0.00,WUHU216HW,2014-02-17 15:50:00,
2014-02-17 10:55:00,43.4,29.1,30.31,East,90,4.0,4.7,57,0.00,,,0.00,WUHU216HW,2014-02-17 15:55:00,
2014-02-17 11:00:00,43.6,27.6,30.31,NNE,23,0.9,6.3,53,0.00,,,0.00,WUHU216HW,2014-02-17 16:00:00,
2014-02-17 11:05:00,44.1,28.9,30.31,ENE,68,2.2,6.3,55,0.00,,,0.00,WUHU216HW,2014-02-17 16:05:00,
2014-02-17 11:10:00,43.7,27.7,30.31,NNE,23,1.3,5.8,53,0.00,,,0.00,WUHU216HW,2014-02-17 16:10:00,
2014-02-17 11:15:00,43.6,27.6,30.31,ENE,68,3.8,5.8,53,0.00,,,0.00,WUHU216HW,2014-02-17 16:15:00,
2014-02-17 11:20:00,43.4,26.9,30.31,NE,45,4.0,6.3,52,0.00,,,0.00,WUHU216HW,2014-02-17 16:20:00,
2014-02-17 11:25:00,43.0,27.0,30.31,ENE,68,4.7,6.5,53,0.00,,,0.00,WUHU216HW,2014-02-17 16:25:00,
2014-02-17 11:30:00,42.8,26.8,30.30,NE,45,3.1,6.9,53,0.00,,,0.00,WUHU216HW,2014-02-17 16:30:00,
2014-02-17 11:35:00,42.7,26.3,30.30,NE,45,4.0,7.6,52,0.00,,,0.00,WUHU216HW,2014-02-17 16:35:00,
2014-02-17 11:40:00,43.0,29.2,30.29,ENE,68,2.7,7.6,58,0.00,,,0.00,WUHU216HW,2014-02-17 16:40:00,
2014-02-17 11:45:00,43.6,28.5,30.30,SE,135,1.6,6.3,55,0.00,,,0.00,WUHU216HW,2014-02-17 16:45:00,
2014-02-17 11:50:00,43.7,27.7,30.29,East,90,4.9,6.3,53,0.00,,,0.00,WUHU216HW,2014-02-17 16:50:00,
2014-02-17 11:55:00,43.6,27.1,30.29,ESE,113,1.1,6.5,52,0.00,,,0.00,WUHU216HW,2014-02-17 16:55:00,
2014-02-17 12:00:00,43.6,27.1,30.28,ESE,113,1.6,6.5,52,0.00,,,0.00,WUHU216HW,2014-02-17 17:00:00,
2014-02-17 12:05:00,43.4,26.5,30.28,ESE,113,4.0,6.3,51,0.00,,,0.00,WUHU216HW,2014-02-17 17:05:00,
2014-02-17 12:10:00,43.4,26.5,30.28,SSE,158,4.3,5.4,51,0.00,,,0.00,WUHU216HW,2014-02-17 17:10:00,
2014-02-17 12:15:00,43.9,27.9,30.29,ESE,113,2.5,5.4,53,0.00,,,0.00,WUHU216HW,2014-02-17 17:15:00,
2014-02-17 12:20:00,44.5,27.5,30.29,SE,135,0.7,4.3,51,0.00,,,0.00,WUHU216HW,2014-02-17 17:20:00,
2014-02-17 12:25:00,44.8,27.8,30.29,ENE,68,1.8,4.3,51,0.00,,,0.00,WUHU216HW,2014-02-17 17:25:00,
2014-02-17 12:30:00,44.5,27.0,30.29,SE,135,1.1,5.4,50,0.00,,,0.00,WUHU216HW,2014-02-17 17:30:00,
2014-02-17 12:35:00,44.3,26.3,30.29,SSE,158,4.0,5.4,49,0.00,,,0.00,WUHU216HW,2014-02-17 17:35:00,
2014-02-17 12:41:00,44.3,26.3,30.28,ESE,113,4.9,6.0,49,0.00,,,0.00,WUHU216HW,2014-02-17 17:41:00,
2014-02-17 12:46:00,44.3,26.3,30.28,SSE,158,4.3,6.0,49,0.00,,,0.00,WUHU216HW,2014-02-17 17:46:00,
2014-02-17 12:51:00,44.1,26.2,30.27,SE,135,1.3,5.4,49,0.00,,,0.00,WUHU216HW,2014-02-17 17:51:00,
2014-02-17 12:56:00,44.3,26.3,30.27,East,90,0.7,5.4,49,0.00,,,0.00,WUHU216HW,2014-02-17 17:56:00,
2014-02-17 13:01:00,44.5,25.9,30.26,SSW,203,2.9,5.4,48,0.00,,,0.00,WUHU216HW,2014-02-17 18:01:00,
2014-02-17 13:06:00,44.3,26.3,30.26,SE,135,5.1,8.3,49,0.00,,,0.00,WUHU216HW,2014-02-17 18:06:00,
2014-02-17 13:11:00,44.6,26.1,30.26,ENE,68,5.1,8.3,48,0.00,,,0.00,WUHU216HW,2014-02-17 18:11:00,
2014-02-17 13:16:00,45.0,26.5,30.26,SE,135,3.4,6.3,48,0.00,,,0.00,WUHU216HW,2014-02-17 18:16:00,
2014-02-17 13:21:00,44.8,25.8,30.25,East,90,4.5,6.3,47,0.00,,,0.00,WUHU216HW,2014-02-17 18:21:00,
2014-02-17 13:26:00,45.0,25.9,30.25,SE,135,6.0,6.3,47,0.00,,,0.00,WUHU216HW,2014-02-17 18:26:00,
2014-02-17 13:31:00,45.2,26.0,30.25,SE,135,4.0,6.5,47,0.00,,,0.00,WUHU216HW,2014-02-17 18:31:00,
2014-02-17 13:36:00,45.0,25.9,30.25,SE,135,3.4,6.7,47,0.00,,,0.00,WUHU216HW,2014-02-17 18:36:00,
2014-02-17 13:41:00,45.4,26.2,30.24,SSE,158,5.8,6.7,47,0.00,,,0.00,WUHU216HW,2014-02-17 18:41:00,
2014-02-17 13:46:00,45.0,25.9,30.23,SSE,158,4.0,7.6,47,0.00,,,0.00,WUHU216HW,2014-02-17 18:46:00,
2014-02-17 13:51:00,44.8,26.3,30.23,ESE,113,1.1,7.6,48,0.00,,,0.00,WUHU216HW,2014-02-17 18:51:00,
2014-02-17 13:56:00,45.2,26.6,30.23,ENE,68,2.5,7.2,48,0.00,,,0.00,WUHU216HW,2014-02-17 18:56:00,
2014-02-17 14:01:00,45.2,26.6,30.23,ENE,68,2.2,7.2,48,0.00,,,0.00,WUHU216HW,2014-02-17 19:01:00,
2014-02-17 14:06:00,45.7,26.6,30.23,SE,135,3.8,5.4,47,0.00,,,0.00,WUHU216HW,2014-02-17 19:06:00,
2014-02-17 14:11:00,46.1,26.8,30.23,ESE,113,6.5,6.5,47,0.00,,,0.00,WUHU216HW,2014-02-17 19:11:00,
2014-02-17 14:16:00,46.3,26.5,30.23,SSW,203,2.7,6.5,46,0.00,,,0.00,WUHU216HW,2014-02-17 19:16:00,
2014-02-17 14:21:00,47.0,27.1,30.23,South,180,6.0,6.9,46,0.00,,,0.00,WUHU216HW,2014-02-17 19:21:00,
2014-02-17 14:26:00,46.8,27.0,30.23,SW,225,1.8,8.1,46,0.00,,,0.00,WUHU216HW,2014-02-17 19:26:00,
2014-02-17 14:31:00,47.2,27.3,30.23,WNW,293,1.6,8.1,46,0.00,,,0.00,WUHU216HW,2014-02-17 19:31:00,
2014-02-17 14:36:00,47.3,26.9,30.23,South,180,3.6,6.9,45,0.00,,,0.00,WUHU216HW,2014-02-17 19:36:00,
2014-02-17 14:41:00,47.2,26.7,30.23,SE,135,3.8,6.9,45,0.00,,,0.00,WUHU216HW,2014-02-17 19:41:00,
2014-02-17 14:46:00,47.3,27.5,30.23,South,180,4.0,4.7,46,0.00,,,0.00,WUHU216HW,2014-02-17 19:46:00,
2014-02-17 14:51:00,47.7,27.3,30.23,SE,135,4.0,4.7,45,0.00,,,0.00,WUHU216HW,2014-02-17 19:51:00,
2014-02-17 14:56:00,47.5,27.1,30.23,SE,135,2.7,5.1,45,0.00,,,0.00,WUHU216HW,2014-02-17 19:56:00,
2014-02-17 15:01:00,47.5,27.1,30.22,SE,135,3.6,5.1,45,0.00,,,0.00,WUHU216HW,2014-02-17 20:01:00,
2014-02-17 15:06:00,47.5,27.1,30.22,South,180,3.4,5.8,45,0.00,,,0.00,WUHU216HW,2014-02-17 20:06:00,
2014-02-17 15:11:00,47.7,27.8,30.22,SE,135,2.0,5.8,46,0.00,,,0.00,WUHU216HW,2014-02-17 20:11:00,
2014-02-17 15:16:00,47.9,27.4,30.22,SSW,203,1.8,3.4,45,0.00,,,0.00,WUHU216HW,2014-02-17 20:16:00,
2014-02-17 15:21:00,48.1,27.5,30.21,East,90,4.0,6.0,45,0.00,,,0.00,WUHU216HW,2014-02-17 20:21:00,
2014-02-17 15:26:00,47.9,27.4,30.21,SSE,158,4.7,6.0,45,0.00,,,0.00,WUHU216HW,2014-02-17 20:26:00,
2014-02-17 15:31:00,48.1,28.1,30.20,East,90,1.3,6.0,46,0.00,,,0.00,WUHU216HW,2014-02-17 20:31:00,
2014-02-17 15:36:00,48.1,27.5,30.20,SE,135,4.7,6.0,45,0.00,,,0.00,WUHU216HW,2014-02-17 20:36:00,
2014-02-17 15:41:00,47.9,27.4,30.20,SSE,158,7.2,7.6,45,0.00,,,0.00,WUHU216HW,2014-02-17 20:41:00,
2014-02-17 15:46:00,48.1,28.1,30.19,East,90,3.6,7.6,46,0.00,,,0.00,WUHU216HW,2014-02-17 20:46:00,
2014-02-17 15:51:00,48.1,28.1,30.19,SSW,203,2.5,8.5,46,0.00,,,0.00,WUHU216HW,2014-02-17 20:51:00,
2014-02-17 15:56:00,48.1,28.1,30.19,SSE,158,2.0,8.5,46,0.00,,,0.00,WUHU216HW,2014-02-17 20:56:00,
2014-02-17 16:01:00,48.1,27.5,30.19,SSE,158,4.0,5.6,45,0.00,,,0.00,WUHU216HW,2014-02-17 21:01:00,
2014-02-17 16:06:00,47.9,27.9,30.19,SSE,158,1.3,5.6,46,0.00,,,0.00,WUHU216HW,2014-02-17 21:06:00,
2014-02-17 16:11:00,48.1,28.1,30.19,SE,135,3.8,6.3,46,0.00,,,0.00,WUHU216HW,2014-02-17 21:11:00,
2014-02-17 16:16:00,47.9,28.4,30.18,ESE,113,2.2,6.3,47,0.00,,,0.00,WUHU216HW,2014-02-17 21:16:00,
2014-02-17 16:21:00,47.9,27.9,30.18,ESE,113,2.7,5.6,46,0.00,,,0.00,WUHU216HW,2014-02-17 21:21:00,
2014-02-17 16:26:00,48.2,28.3,30.17,SSE,158,4.7,6.0,46,0.00,,,0.00,WUHU216HW,2014-02-17 21:26:00,
2014-02-17 16:31:00,48.2,28.8,30.18,SSE,158,2.5,8.1,47,0.00,,,0.00,WUHU216HW,2014-02-17 21:31:00,
2014-02-17 16:36:00,48.2,28.3,30.18,ESE,113,4.7,8.1,46,0.00,,,0.00,WUHU216HW,2014-02-17 21:36:00,
2014-02-17 16:41:00,48.2,28.3,30.18,NNE,23,3.6,6.5,46,0.00,,,0.00,WUHU216HW,2014-02-17 21:41:00,
2014-02-17 16:45:00,48.1,28.1,30.18,SE,135,7.2,7.2,46,0.00,,,0.00,WUHU216HW,2014-02-17 21:45:00,
2014-02-17 16:50:00,47.9,28.4,30.18,SSE,158,2.7,7.2,47,0.00,,,0.00,WUHU216HW,2014-02-17 21:50:00,
2014-02-17 16:55:00,47.9,28.4,30.18,SSE,158,4.7,7.2,47,0.00,,,0.00,WUHU216HW,2014-02-17 21:55:00,
2014-02-17 17:00:00,47.9,28.4,30.17,SSE,158,5.8,5.8,47,0.00,,,0.00,WUHU216HW,2014-02-17 22:00:00,
2014-02-17 17:05:00,47.9,29.0,30.17,SSE,158,2.9,5.8,48,0.00,,,0.00,WUHU216HW,2014-02-17 22:05:00,
2014-02-17 17:10:00,47.9,29.5,30.17,SE,135,3.4,5.8,49,0.00,,,0.00,WUHU216HW,2014-02-17 22:10:00,
2014-02-17 17:15:00,47.7,29.4,30.17,ESE,113,1.6,5.1,49,0.00,,,0.00,WUHU216HW,2014-02-17 22:15:00,
2014-02-17 17:20:00,47.5,29.3,30.17,SE,135,3.4,6.3,49,0.00,,,0.00,WUHU216HW,2014-02-17 22:20:00,
2014-02-17 17:25:00,47.5,29.3,30.18,SSE,158,1.8,6.3,49,0.00,,,0.00,WUHU216HW,2014-02-17 22:25:00,
2014-02-17 17:30:00,47.3,28.5,30.18,ESE,113,1.6,6.3,48,0.00,,,0.00,WUHU216HW,2014-02-17 22:30:00,
2014-02-17 17:35:00,47.3,29.1,30.19,East,90,1.1,4.5,49,0.00,,,0.00,WUHU216HW,2014-02-17 22:35:00,
2014-02-17 17:40:00,47.3,29.1,30.19,SE,135,1.8,2.7,49,0.00,,,0.00,WUHU216HW,2014-02-17 22:40:00,
2014-02-17 17:45:00,47.2,29.4,30.19,SE,135,1.6,2.7,50,0.00,,,0.00,WUHU216HW,2014-02-17 22:45:00,
2014-02-17 17:50:00,46.8,29.6,30.18,North,0,1.6,2.9,51,0.00,,,0.00,WUHU216HW,2014-02-17 22:50:00,
2014-02-17 17:55:00,46.6,29.4,30.18,SSE,158,1.6,4.3,51,0.00,,,0.00,WUHU216HW,2014-02-17 22:55:00,
2014-02-17 18:00:00,46.4,29.3,30.18,SSE,158,1.8,4.3,51,0.00,,,0.00,WUHU216HW,2014-02-17 23:00:00,
2014-02-17 18:05:00,46.4,29.3,30.18,SSE,158,2.5,2.9,51,0.00,,,0.00,WUHU216HW,2014-02-17 23:05:00,
2014-02-17 18:10:00,46.3,29.1,30.19,SE,135,0.9,2.5,51,0.00,,,0.00,WUHU216HW,2014-02-17 23:10:00,
2014-02-17 18:15:00,46.1,28.9,30.19,SSE,158,1.1,2.5,51,0.00,,,0.00,WUHU216HW,2014-02-17 23:15:00,
2014-02-17 18:20:00,46.1,28.9,30.19,South,180,0.7,2.2,51,0.00,,,0.00,WUHU216HW,2014-02-17 23:20:00,
2014-02-17 18:25:00,45.9,28.8,30.19,SSE,158,0.4,2.2,51,0.00,,,0.00,WUHU216HW,2014-02-17 23:25:00,
2014-02-17 18:30:00,45.7,29.1,30.19,SSE,158,1.1,1.1,52,0.00,,,0.00,WUHU216HW,2014-02-17 23:30:00,
2014-02-17 18:35:00,45.7,29.1,30.20,SSE,158,0.0,1.1,52,0.00,,,0.00,WUHU216HW,2014-02-17 23:35:00,
2014-02-17 18:40:00,45.5,28.9,30.20,SSE,158,0.0,1.1,52,0.00,,,0.00,WUHU216HW,2014-02-17 23:40:00,
2014-02-17 18:45:00,45.4,29.2,30.21,NW,315,1.1,1.1,53,0.00,,,0.00,WUHU216HW,2014-02-17 23:45:00,
2014-02-17 18:50:00,44.8,28.7,30.22,NW,315,0.9,1.1,53,0.00,,,0.00,WUHU216HW,2014-02-17 23:50:00,
2014-02-17 18:55:00,44.5,28.8,30.22,NNW,338,0.4,1.1,54,0.00,,,0.00,WUHU216HW,2014-02-17 23:55:00,
2014-02-17 19:00:00,44.5,28.8,30.22,North,0,0.7,1.8,54,0.00,,,0.00,WUHU216HW,2014-02-18 00:00:00,
2014-02-17 19:05:00,44.6,29.0,30.21,NNE,23,1.1,1.8,54,0.00,,,0.00,WUHU216HW,2014-02-18 00:05:00,
2014-02-17 19:10:00,44.5,30.2,30.20,SE,135,1.1,1.8,57,0.00,,,0.00,WUHU216HW,2014-02-18 00:10:00,
2014-02-17 19:15:00,43.9,30.5,30.20,SSE,158,2.5,2.5,59,0.00,,,0.00,WUHU216HW,2014-02-18 00:15:00,
2014-02-17 19:20:00,43.9,29.2,30.20,SSE,158,0.0,2.5,56,0.00,,,0.00,WUHU216HW,2014-02-18 00:20:00,
2014-02-17 19:25:00,44.1,29.3,30.20,SSE,158,0.4,2.5,56,0.00,,,0.00,WUHU216HW,2014-02-18 00:25:00,
2014-02-17 19:30:00,44.3,29.5,30.20,SSE,158,1.1,1.3,56,0.00,,,0.00,WUHU216HW,2014-02-18 00:30:00,
2014-02-17 19:35:00,43.7,31.6,30.19,SSE,158,2.5,3.4,62,0.00,,,0.00,WUHU216HW,2014-02-18 00:35:00,
2014-02-17 19:40:00,43.6,30.2,30.18,SE,135,0.7,3.4,59,0.00,,,0.00,WUHU216HW,2014-02-18 00:40:00,
2014-02-17 19:45:00,43.6,29.7,30.19,North,0,1.1,2.5,58,0.00,,,0.00,WUHU216HW,2014-02-18 00:45:00,
2014-02-17 19:50:00,43.9,29.6,30.19,NNE,23,0.2,2.0,57,0.00,,,0.00,WUHU216HW,2014-02-18 00:50:00,
2014-02-17 19:55:00,43.9,31.3,30.18,SSE,158,2.2,3.1,61,0.00,,,0.00,WUHU216HW,2014-02-18 00:55:00,
2014-02-17 20:00:00,43.7,30.3,30.18,NE,45,0.4,3.1,59,0.00,,,0.00,WUHU216HW,2014-02-18 01:00:00,
2014-02-17 20:05:00,43.9,30.1,30.18,NE,45,0.0,2.2,58,0.00,,,0.00,WUHU216HW,2014-02-18 01:05:00,
2014-02-17 20:10:00,44.1,30.2,30.17,SSE,158,2.0,2.0,58,0.00,,,0.00,WUHU216HW,2014-02-18 01:10:00,
2014-02-17 20:15:00,43.6,30.6,30.16,SE,135,1.3,2.5,60,0.00,,,0.00,WUHU216HW,2014-02-18 01:15:00,
2014-02-17 20:20:00,43.6,30.2,30.16,SE,135,1.1,3.4,59,0.00,,,0.00,WUHU216HW,2014-02-18 01:20:00,
2014-02-17 20:25:00,43.6,30.2,30.16,NNE,23,3.4,3.4,59,0.00,,,0.00,WUHU216HW,2014-02-18 01:25:00,
2014-02-17 20:30:00,43.6,30.2,30.16,East,90,1.1,3.4,59,0.00,,,0.00,WUHU216HW,2014-02-18 01:30:00,
2014-02-17 20:35:00,43.6,29.7,30.16,NE,45,0.9,3.1,58,0.00,,,0.00,WUHU216HW,2014-02-18 01:35:00,
2014-02-17 20:40:00,43.4,29.5,30.16,North,0,1.6,2.7,58,0.00,,,0.00,WUHU216HW,2014-02-18 01:40:00,
2014-02-17 20:45:00,43.4,30.0,30.17,North,0,0.9,2.7,59,0.00,,,0.00,WUHU216HW,2014-02-18 01:45:00,
2014-02-17 20:50:00,42.8,29.4,30.16,NE,45,1.3,2.7,59,0.00,,,0.00,WUHU216HW,2014-02-18 01:50:00,
2014-02-17 20:55:00,42.8,29.4,30.17,NE,45,1.8,2.5,59,0.00,,,0.00,WUHU216HW,2014-02-18 01:55:00,
2014-02-17 21:00:00,42.8,29.4,30.17,NE,45,1.6,2.9,59,0.00,,,0.00,WUHU216HW,2014-02-18 02:00:00,
2014-02-17 21:05:00,42.8,29.9,30.17,East,90,1.1,2.9,60,0.00,,,0.00,WUHU216HW,2014-02-18 02:05:00,
2014-02-17 21:10:00,42.8,29.4,30.16,ESE,113,0.0,2.7,59,0.00,,,0.00,WUHU216HW,2014-02-18 02:10:00,
2014-02-17 21:15:00,42.7,29.3,30.17,ESE,113,0.0,1.8,59,0.00,,,0.00,WUHU216HW,2014-02-18 02:15:00,
2014-02-17 21:20:00,42.5,29.2,30.17,ENE,68,1.1,1.1,59,0.00,,,0.00,WUHU216HW,2014-02-18 02:20:00,
2014-02-17 21:25:00,42.5,29.2,30.17,ENE,68,0.2,2.0,59,0.00,,,0.00,WUHU216HW,2014-02-18 02:25:00,
2014-02-17 21:30:00,42.5,29.5,30.16,East,90,0.9,2.0,60,0.00,,,0.00,WUHU216HW,2014-02-18 02:30:00,
2014-02-17 21:35:00,42.3,29.4,30.16,East,90,1.1,1.8,60,0.00,,,0.00,WUHU216HW,2014-02-18 02:35:00,
2014-02-17 21:40:00,42.1,29.3,30.16,ENE,68,1.8,1.8,60,0.00,,,0.00,WUHU216HW,2014-02-18 02:40:00,
2014-02-17 21:45:00,42.1,29.3,30.16,NNE,23,1.6,2.0,60,0.00,,,0.00,WUHU216HW,2014-02-18 02:45:00,
2014-02-17 21:50:00,42.1,29.6,30.17,NE,45,1.8,2.2,61,0.00,,,0.00,WUHU216HW,2014-02-18 02:50:00,
2014-02-17 21:55:00,42.3,29.8,30.16,NE,45,1.6,2.5,61,0.00,,,0.00,WUHU216HW,2014-02-18 02:55:00,
2014-02-17 22:00:00,42.3,29.8,30.16,ENE,68,0.7,2.5,61,0.00,,,0.00,WUHU216HW,2014-02-18 03:00:00,
2014-02-17 22:05:00,42.3,29.8,30.16,NNE,23,0.2,2.2,61,0.00,,,0.00,WUHU216HW,2014-02-18 03:05:00,
2014-02-17 22:10:00,42.3,29.8,30.16,NNE,23,0.4,3.4,61,0.00,,,0.00,WUHU216HW,2014-02-18 03:10:00,
2014-02-17 22:14:00,42.3,30.2,30.17,North,0,0.9,3.4,62,0.00,,,0.00,WUHU216HW,2014-02-18 03:14:00,
2014-02-17 22:19:00,42.3,30.2,30.17,NNE,23,1.8,2.9,62,0.00,,,0.00,WUHU216HW,2014-02-18 03:19:00,
2014-02-17 22:24:00,42.3,29.8,30.17,North,0,1.3,2.9,61,0.00,,,0.00,WUHU216HW,2014-02-18 03:24:00,
2014-02-17 22:29:00,42.3,30.2,30.16,North,0,0.7,2.2,62,0.00,,,0.00,WUHU216HW,2014-02-18 03:29:00,
2014-02-17 22:34:00,42.5,30.3,30.16,North,0,0.4,2.0,62,0.00,,,0.00,WUHU216HW,2014-02-18 03:34:00,
2014-02-17 22:39:00,42.5,30.3,30.17,NW,315,0.4,1.1,62,0.00,,,0.00,WUHU216HW,2014-02-18 03:39:00,
2014-02-17 22:44:00,42.1,30.4,30.17,NNW,338,0.2,0.9,63,0.00,,,0.00,WUHU216HW,2014-02-18 03:44:00,
2014-02-17 22:49:00,41.9,30.6,30.16,NW,315,0.2,0.9,64,0.00,,,0.00,WUHU216HW,2014-02-18 03:49:00,
2014-02-17 22:54:00,41.8,30.4,30.16,NW,315,0.4,0.4,64,0.00,,,0.00,WUHU216HW,2014-02-18 03:54:00,
2014-02-17 22:59:00,41.6,31.4,30.17,NNW,338,0.4,1.1,67,0.00,,,0.00,WUHU216HW,2014-02-18 03:59:00,
2014-02-17 23:04:00,41.4,31.2,30.17,North,0,0.2,2.2,67,0.00,,,0.00,WUHU216HW,2014-02-18 04:04:00,
2014-02-17 23:09:00,41.4,31.2,30.17,NW,315,0.4,2.2,67,0.00,,,0.00,WUHU216HW,2014-02-18 04:09:00,
2014-02-17 23:14:00,41.4,31.7,30.17,North,0,0.7,2.0,68,0.00,,,0.00,WUHU216HW,2014-02-18 04:14:00,
2014-02-17 23:19:00,41.2,31.1,30.17,NNW,338,2.9,3.1,67,0.00,,,0.00,WUHU216HW,2014-02-18 04:19:00,
2014-02-17 23:24:00,41.4,31.2,30.17,NNW,338,3.8,5.1,67,0.00,,,0.00,WUHU216HW,2014-02-18 04:24:00,
2014-02-17 23:29:00,41.4,31.2,30.16,NNE,23,1.8,5.1,67,0.00,,,0.00,WUHU216HW,2014-02-18 04:29:00,
2014-02-17 23:34:00,41.4,31.2,30.16,North,0,2.9,5.4,67,0.00,,,0.00,WUHU216HW,2014-02-18 04:34:00,
2014-02-17 23:39:00,41.6,31.1,30.16,NE,45,0.9,5.4,66,0.00,,,0.00,WUHU216HW,2014-02-18 04:39:00,
2014-02-17 23:44:00,41.6,31.1,30.17,NNW,338,1.1,3.6,66,0.00,,,0.00,WUHU216HW,2014-02-18 04:44:00,
2014-02-17 23:49:00,41.6,31.4,30.17,NNW,338,1.1,4.3,67,0.00,,,0.00,WUHU216HW,2014-02-18 04:49:00,
2014-02-17 23:54:00,41.4,30.9,30.17,North,0,3.4,4.7,66,0.00,,,0.00,WUHU216HW,2014-02-18 04:54:00,
2014-02-17 23:59:00,41.4,31.2,30.18,NW,315,1.8,4.7,67,0.00,,,0.00,WUHU216HW,2014-02-18 04:59:00,